sensor_id;sensor_type;location;lat;lon;timestamp;P1;durP1;ratioP1;P2;durP2;ratioP2
6987;SDS011;3534;49.960;8.018;2023-04-01T00:01:52;5.37;;;1.70;;
6987;SDS011;3534;49.960;8.018;2023-04-01T00:04:19;8.23;;;2.30;;
6987;SDS011;3534;49.960;8.018;2023-04-01T00:06:46;4.40;;;1.37;;
6987;SDS011;3534;49.960;8.018;2023-04-01T00:09:14;5.97;;;1.60;;
6987;SDS011;3534;49.960;8.018;2023-04-01T00:11:41;8.30;;;1.40;;
6987;SDS011;3534;49.960;8.018;2023-04-01T00:14:08;5.57;;;1.70;;
6987;SDS011;3534;49.960;8.018;2023-04-01T00:16:35;2.30;;;1.20;;
6987;SDS011;3534;49.960;8.018;2023-04-01T00:19:02;5.73;;;1.53;;
6987;SDS011;3534;49.960;8.018;2023-04-01T00:21:29;2.87;;;1.20;;
6987;SDS011;3534;49.960;8.018;2023-04-01T00:23:56;4.87;;;1.47;;
6987;SDS011;3534;49.960;8.018;2023-04-01T00:26:25;3.60;;;1.30;;
6987;SDS011;3534;49.960;8.018;2023-04-01T00:28:52;5.60;;;1.30;;
6987;SDS011;3534;49.960;8.018;2023-04-01T00:31:19;8.87;;;1.10;;
6987;SDS011;3534;49.960;8.018;2023-04-01T00:33:45;8.43;;;1.40;;
6987;SDS011;3534;49.960;8.018;2023-04-01T00:36:13;5.77;;;1.50;;
6987;SDS011;3534;49.960;8.018;2023-04-01T00:38:42;2.43;;;1.63;;
6987;SDS011;3534;49.960;8.018;2023-04-01T00:41:09;4.10;;;1.40;;
6987;SDS011;3534;49.960;8.018;2023-04-01T00:43:40;5.60;;;1.43;;
6987;SDS011;3534;49.960;8.018;2023-04-01T00:46:07;5.93;;;1.10;;
6987;SDS011;3534;49.960;8.018;2023-04-01T00:48:35;4.60;;;1.33;;
6987;SDS011;3534;49.960;8.018;2023-04-01T00:51:06;2.53;;;1.10;;
6987;SDS011;3534;49.960;8.018;2023-04-01T00:53:36;4.77;;;1.23;;
6987;SDS011;3534;49.960;8.018;2023-04-01T00:56:05;5.30;;;1.40;;
6987;SDS011;3534;49.960;8.018;2023-04-01T00:58:38;6.93;;;1.30;;
6987;SDS011;3534;49.960;8.018;2023-04-01T01:01:09;7.47;;;1.30;;
6987;SDS011;3534;49.960;8.018;2023-04-01T01:03:36;7.53;;;1.53;;
6987;SDS011;3534;49.960;8.018;2023-04-01T01:06:10;2.27;;;1.20;;
6987;SDS011;3534;49.960;8.018;2023-04-01T01:08:52;2.80;;;1.17;;
6987;SDS011;3534;49.960;8.018;2023-04-01T01:11:34;2.97;;;1.20;;
6987;SDS011;3534;49.960;8.018;2023-04-01T01:14:08;4.67;;;1.40;;
6987;SDS011;3534;49.960;8.018;2023-04-01T01:16:41;3.77;;;1.30;;
6987;SDS011;3534;49.960;8.018;2023-04-01T01:19:15;4.03;;;1.30;;
6987;SDS011;3534;49.960;8.018;2023-04-01T01:22:18;3.27;;;1.43;;
6987;SDS011;3534;49.960;8.018;2023-04-01T01:25:10;6.07;;;1.50;;
6987;SDS011;3534;49.960;8.018;2023-04-01T01:27:46;3.90;;;1.50;;
6987;SDS011;3534;49.960;8.018;2023-04-01T01:30:31;4.23;;;1.07;;
6987;SDS011;3534;49.960;8.018;2023-04-01T01:36:12;3.90;;;1.50;;
6987;SDS011;3534;49.960;8.018;2023-04-01T01:38:40;3.07;;;1.30;;
6987;SDS011;3534;49.960;8.018;2023-04-01T01:41:07;2.80;;;1.50;;
6987;SDS011;3534;49.960;8.018;2023-04-01T01:43:36;3.87;;;1.30;;
6987;SDS011;3534;49.960;8.018;2023-04-01T01:46:07;7.10;;;1.03;;
6987;SDS011;3534;49.960;8.018;2023-04-01T01:48:37;7.43;;;2.23;;
6987;SDS011;3534;49.960;8.018;2023-04-01T01:51:06;1.40;;;1.30;;
6987;SDS011;3534;49.960;8.018;2023-04-01T01:53:34;5.10;;;1.30;;
6987;SDS011;3534;49.960;8.018;2023-04-01T01:56:02;5.63;;;1.73;;
6987;SDS011;3534;49.960;8.018;2023-04-01T01:58:30;2.20;;;1.00;;
6987;SDS011;3534;49.960;8.018;2023-04-01T02:01:00;3.53;;;0.97;;
6987;SDS011;3534;49.960;8.018;2023-04-01T02:03:30;2.13;;;0.90;;
6987;SDS011;3534;49.960;8.018;2023-04-01T02:06:00;7.27;;;1.10;;
6987;SDS011;3534;49.960;8.018;2023-04-01T02:08:30;1.67;;;0.60;;
6987;SDS011;3534;49.960;8.018;2023-04-01T02:11:03;1.87;;;0.90;;
6987;SDS011;3534;49.960;8.018;2023-04-01T02:13:33;7.40;;;1.20;;
6987;SDS011;3534;49.960;8.018;2023-04-01T02:16:05;4.10;;;0.87;;
6987;SDS011;3534;49.960;8.018;2023-04-01T02:18:37;2.87;;;1.20;;
6987;SDS011;3534;49.960;8.018;2023-04-01T02:21:05;2.07;;;1.10;;
6987;SDS011;3534;49.960;8.018;2023-04-01T02:23:34;3.13;;;1.10;;
6987;SDS011;3534;49.960;8.018;2023-04-01T02:26:03;4.07;;;1.30;;
6987;SDS011;3534;49.960;8.018;2023-04-01T02:28:33;5.70;;;1.00;;
6987;SDS011;3534;49.960;8.018;2023-04-01T02:31:00;7.73;;;1.57;;
6987;SDS011;3534;49.960;8.018;2023-04-01T02:33:28;4.07;;;1.10;;
6987;SDS011;3534;49.960;8.018;2023-04-01T02:35:55;2.30;;;1.17;;
6987;SDS011;3534;49.960;8.018;2023-04-01T02:38:23;4.73;;;1.50;;
6987;SDS011;3534;49.960;8.018;2023-04-01T02:40:51;4.50;;;1.63;;
6987;SDS011;3534;49.960;8.018;2023-04-01T02:43:25;2.80;;;1.00;;
6987;SDS011;3534;49.960;8.018;2023-04-01T02:45:52;2.30;;;1.07;;
6987;SDS011;3534;49.960;8.018;2023-04-01T02:48:20;6.33;;;1.43;;
6987;SDS011;3534;49.960;8.018;2023-04-01T02:50:47;2.20;;;1.27;;
6987;SDS011;3534;49.960;8.018;2023-04-01T02:53:13;4.70;;;1.37;;
6987;SDS011;3534;49.960;8.018;2023-04-01T02:55:40;8.10;;;0.87;;
6987;SDS011;3534;49.960;8.018;2023-04-01T02:58:07;5.73;;;1.10;;
6987;SDS011;3534;49.960;8.018;2023-04-01T03:00:35;5.10;;;1.10;;
6987;SDS011;3534;49.960;8.018;2023-04-01T03:03:02;5.20;;;1.20;;
6987;SDS011;3534;49.960;8.018;2023-04-01T03:05:29;4.93;;;1.37;;
6987;SDS011;3534;49.960;8.018;2023-04-01T03:07:56;4.60;;;1.27;;
6987;SDS011;3534;49.960;8.018;2023-04-01T03:10:23;3.67;;;1.40;;
6987;SDS011;3534;49.960;8.018;2023-04-01T03:12:50;3.83;;;1.00;;
6987;SDS011;3534;49.960;8.018;2023-04-01T03:15:16;1.30;;;1.00;;
6987;SDS011;3534;49.960;8.018;2023-04-01T03:17:44;4.03;;;1.43;;
6987;SDS011;3534;49.960;8.018;2023-04-01T03:20:12;7.23;;;1.00;;
6987;SDS011;3534;49.960;8.018;2023-04-01T03:22:39;15.83;;;1.53;;
6987;SDS011;3534;49.960;8.018;2023-04-01T03:25:07;4.47;;;1.40;;
6987;SDS011;3534;49.960;8.018;2023-04-01T03:27:34;8.53;;;1.70;;
6987;SDS011;3534;49.960;8.018;2023-04-01T03:30:01;2.87;;;1.13;;
6987;SDS011;3534;49.960;8.018;2023-04-01T03:32:28;3.60;;;1.40;;
6987;SDS011;3534;49.960;8.018;2023-04-01T03:34:56;2.00;;;1.30;;
6987;SDS011;3534;49.960;8.018;2023-04-01T03:37:23;4.40;;;1.13;;
6987;SDS011;3534;49.960;8.018;2023-04-01T03:39:50;1.30;;;0.87;;
6987;SDS011;3534;49.960;8.018;2023-04-01T03:42:17;4.40;;;1.60;;
6987;SDS011;3534;49.960;8.018;2023-04-01T03:44:44;8.60;;;1.40;;
6987;SDS011;3534;49.960;8.018;2023-04-01T03:47:11;4.50;;;1.37;;
6987;SDS011;3534;49.960;8.018;2023-04-01T03:49:38;2.70;;;1.50;;
6987;SDS011;3534;49.960;8.018;2023-04-01T03:52:08;3.53;;;1.47;;
6987;SDS011;3534;49.960;8.018;2023-04-01T03:54:35;1.93;;;1.37;;
6987;SDS011;3534;49.960;8.018;2023-04-01T03:57:02;5.03;;;1.77;;
6987;SDS011;3534;49.960;8.018;2023-04-01T03:59:29;6.90;;;2.10;;
6987;SDS011;3534;49.960;8.018;2023-04-01T04:01:56;6.10;;;1.87;;
6987;SDS011;3534;49.960;8.018;2023-04-01T04:04:23;3.87;;;1.00;;
6987;SDS011;3534;49.960;8.018;2023-04-01T04:06:49;5.67;;;1.70;;
6987;SDS011;3534;49.960;8.018;2023-04-01T04:09:18;5.13;;;1.67;;
6987;SDS011;3534;49.960;8.018;2023-04-01T04:11:45;4.00;;;1.10;;
6987;SDS011;3534;49.960;8.018;2023-04-01T04:14:11;2.23;;;1.10;;
6987;SDS011;3534;49.960;8.018;2023-04-01T04:16:38;6.53;;;1.20;;
6987;SDS011;3534;49.960;8.018;2023-04-01T04:19:05;2.40;;;1.13;;
6987;SDS011;3534;49.960;8.018;2023-04-01T04:21:31;3.83;;;1.30;;
6987;SDS011;3534;49.960;8.018;2023-04-01T04:23:58;2.40;;;1.27;;
6987;SDS011;3534;49.960;8.018;2023-04-01T04:26:27;2.17;;;1.23;;
6987;SDS011;3534;49.960;8.018;2023-04-01T04:28:54;3.30;;;1.30;;
6987;SDS011;3534;49.960;8.018;2023-04-01T04:31:21;4.93;;;1.23;;
6987;SDS011;3534;49.960;8.018;2023-04-01T04:33:48;3.87;;;1.50;;
6987;SDS011;3534;49.960;8.018;2023-04-01T04:36:16;4.63;;;1.50;;
6987;SDS011;3534;49.960;8.018;2023-04-01T04:38:43;6.03;;;1.50;;
6987;SDS011;3534;49.960;8.018;2023-04-01T04:41:10;2.50;;;1.30;;
6987;SDS011;3534;49.960;8.018;2023-04-01T04:43:39;4.67;;;1.30;;
6987;SDS011;3534;49.960;8.018;2023-04-01T04:46:07;5.90;;;2.13;;
6987;SDS011;3534;49.960;8.018;2023-04-01T04:48:34;2.90;;;1.47;;
6987;SDS011;3534;49.960;8.018;2023-04-01T04:51:01;4.50;;;1.40;;
6987;SDS011;3534;49.960;8.018;2023-04-01T04:53:28;6.93;;;1.90;;
6987;SDS011;3534;49.960;8.018;2023-04-01T04:55:56;2.87;;;1.50;;
6987;SDS011;3534;49.960;8.018;2023-04-01T04:58:23;8.17;;;1.97;;
6987;SDS011;3534;49.960;8.018;2023-04-01T05:00:51;3.60;;;1.50;;
6987;SDS011;3534;49.960;8.018;2023-04-01T05:03:17;2.93;;;1.37;;
6987;SDS011;3534;49.960;8.018;2023-04-01T05:05:48;1.90;;;0.80;;
6987;SDS011;3534;49.960;8.018;2023-04-01T05:08:15;2.93;;;1.00;;
6987;SDS011;3534;49.960;8.018;2023-04-01T05:10:42;2.60;;;0.90;;
6987;SDS011;3534;49.960;8.018;2023-04-01T05:13:09;2.37;;;1.20;;
6987;SDS011;3534;49.960;8.018;2023-04-01T05:15:36;3.90;;;0.80;;
6987;SDS011;3534;49.960;8.018;2023-04-01T05:18:04;4.97;;;0.87;;
6987;SDS011;3534;49.960;8.018;2023-04-01T05:20:31;5.57;;;1.20;;
6987;SDS011;3534;49.960;8.018;2023-04-01T05:22:58;4.50;;;1.10;;
6987;SDS011;3534;49.960;8.018;2023-04-01T05:25:25;3.60;;;1.00;;
6987;SDS011;3534;49.960;8.018;2023-04-01T05:27:52;3.93;;;1.27;;
6987;SDS011;3534;49.960;8.018;2023-04-01T05:30:19;5.37;;;1.03;;
6987;SDS011;3534;49.960;8.018;2023-04-01T05:32:47;2.23;;;1.00;;
6987;SDS011;3534;49.960;8.018;2023-04-01T05:35:15;5.73;;;1.47;;
6987;SDS011;3534;49.960;8.018;2023-04-01T05:37:42;4.23;;;1.40;;
6987;SDS011;3534;49.960;8.018;2023-04-01T05:40:09;2.57;;;1.50;;
6987;SDS011;3534;49.960;8.018;2023-04-01T05:42:36;5.33;;;1.50;;
6987;SDS011;3534;49.960;8.018;2023-04-01T05:45:03;4.63;;;1.27;;
6987;SDS011;3534;49.960;8.018;2023-04-01T05:47:30;2.30;;;0.97;;
6987;SDS011;3534;49.960;8.018;2023-04-01T05:49:57;3.77;;;1.10;;
6987;SDS011;3534;49.960;8.018;2023-04-01T05:52:25;2.70;;;0.70;;
6987;SDS011;3534;49.960;8.018;2023-04-01T05:54:52;0.80;;;0.60;;
6987;SDS011;3534;49.960;8.018;2023-04-01T05:57:18;1.40;;;0.73;;
6987;SDS011;3534;49.960;8.018;2023-04-01T05:59:45;3.07;;;0.70;;
6987;SDS011;3534;49.960;8.018;2023-04-01T06:02:12;0.90;;;0.60;;
6987;SDS011;3534;49.960;8.018;2023-04-01T06:04:42;1.43;;;0.80;;
6987;SDS011;3534;49.960;8.018;2023-04-01T06:07:12;2.30;;;0.77;;
6987;SDS011;3534;49.960;8.018;2023-04-01T06:09:42;5.20;;;1.10;;
6987;SDS011;3534;49.960;8.018;2023-04-01T06:12:25;1.30;;;1.03;;
6987;SDS011;3534;49.960;8.018;2023-04-01T06:15:11;1.90;;;0.83;;
6987;SDS011;3534;49.960;8.018;2023-04-01T06:18:11;1.10;;;0.77;;
6987;SDS011;3534;49.960;8.018;2023-04-01T06:21:01;1.60;;;0.80;;
6987;SDS011;3534;49.960;8.018;2023-04-01T06:23:40;0.90;;;0.53;;
6987;SDS011;3534;49.960;8.018;2023-04-01T06:26:19;1.37;;;0.70;;
6987;SDS011;3534;49.960;8.018;2023-04-01T06:32:01;3.50;;;0.53;;
6987;SDS011;3534;49.960;8.018;2023-04-01T06:34:52;3.60;;;0.87;;
6987;SDS011;3534;49.960;8.018;2023-04-01T06:37:57;3.13;;;0.90;;
6987;SDS011;3534;49.960;8.018;2023-04-01T06:40:38;1.67;;;0.73;;
6987;SDS011;3534;49.960;8.018;2023-04-01T06:43:44;1.73;;;0.67;;
6987;SDS011;3534;49.960;8.018;2023-04-01T06:46:19;2.17;;;0.73;;
6987;SDS011;3534;49.960;8.018;2023-04-01T06:48:59;1.33;;;0.60;;
6987;SDS011;3534;49.960;8.018;2023-04-01T06:51:34;1.00;;;0.93;;
6987;SDS011;3534;49.960;8.018;2023-04-01T06:54:10;4.00;;;0.80;;
6987;SDS011;3534;49.960;8.018;2023-04-01T06:56:42;1.53;;;0.60;;
6987;SDS011;3534;49.960;8.018;2023-04-01T06:59:14;1.50;;;0.80;;
6987;SDS011;3534;49.960;8.018;2023-04-01T07:01:44;7.20;;;1.00;;
6987;SDS011;3534;49.960;8.018;2023-04-01T07:04:14;1.77;;;0.80;;
6987;SDS011;3534;49.960;8.018;2023-04-01T07:06:47;1.67;;;0.87;;
6987;SDS011;3534;49.960;8.018;2023-04-01T07:09:18;2.97;;;0.63;;
6987;SDS011;3534;49.960;8.018;2023-04-01T07:11:48;1.60;;;0.93;;
6987;SDS011;3534;49.960;8.018;2023-04-01T07:14:20;1.80;;;0.80;;
6987;SDS011;3534;49.960;8.018;2023-04-01T07:16:51;1.33;;;0.80;;
6987;SDS011;3534;49.960;8.018;2023-04-01T07:19:22;2.77;;;1.00;;
6987;SDS011;3534;49.960;8.018;2023-04-01T07:21:54;0.83;;;0.60;;
6987;SDS011;3534;49.960;8.018;2023-04-01T07:24:25;3.03;;;0.80;;
6987;SDS011;3534;49.960;8.018;2023-04-01T07:26:54;0.60;;;0.50;;
6987;SDS011;3534;49.960;8.018;2023-04-01T07:29:23;0.90;;;0.50;;
6987;SDS011;3534;49.960;8.018;2023-04-01T07:31:56;0.70;;;0.50;;
6987;SDS011;3534;49.960;8.018;2023-04-01T07:34:41;1.93;;;0.67;;
6987;SDS011;3534;49.960;8.018;2023-04-01T07:37:36;0.87;;;0.70;;
6987;SDS011;3534;49.960;8.018;2023-04-01T07:40:12;1.60;;;0.80;;
6987;SDS011;3534;49.960;8.018;2023-04-01T07:42:51;2.30;;;0.60;;
6987;SDS011;3534;49.960;8.018;2023-04-01T07:45:30;0.60;;;0.40;;
6987;SDS011;3534;49.960;8.018;2023-04-01T07:48:06;1.00;;;0.57;;
6987;SDS011;3534;49.960;8.018;2023-04-01T07:50:42;1.00;;;0.43;;
6987;SDS011;3534;49.960;8.018;2023-04-01T07:53:17;0.50;;;0.40;;
6987;SDS011;3534;49.960;8.018;2023-04-01T07:55:54;3.17;;;0.40;;
6987;SDS011;3534;49.960;8.018;2023-04-01T07:58:29;0.90;;;0.43;;
6987;SDS011;3534;49.960;8.018;2023-04-01T08:01:05;0.70;;;0.40;;
6987;SDS011;3534;49.960;8.018;2023-04-01T08:03:43;0.83;;;0.50;;
6987;SDS011;3534;49.960;8.018;2023-04-01T08:06:24;1.20;;;0.60;;
6987;SDS011;3534;49.960;8.018;2023-04-01T08:08:57;1.37;;;0.50;;
6987;SDS011;3534;49.960;8.018;2023-04-01T08:11:36;1.13;;;0.40;;
6987;SDS011;3534;49.960;8.018;2023-04-01T08:14:12;0.60;;;0.40;;
6987;SDS011;3534;49.960;8.018;2023-04-01T08:16:48;0.80;;;0.40;;
6987;SDS011;3534;49.960;8.018;2023-04-01T08:19:22;0.70;;;0.47;;
6987;SDS011;3534;49.960;8.018;2023-04-01T08:21:57;0.80;;;0.50;;
6987;SDS011;3534;49.960;8.018;2023-04-01T08:24:32;2.53;;;0.70;;
6987;SDS011;3534;49.960;8.018;2023-04-01T08:27:03;0.90;;;0.40;;
6987;SDS011;3534;49.960;8.018;2023-04-01T08:29:39;0.70;;;0.60;;
6987;SDS011;3534;49.960;8.018;2023-04-01T08:32:12;0.60;;;0.40;;
6987;SDS011;3534;49.960;8.018;2023-04-01T08:34:43;1.60;;;0.40;;
6987;SDS011;3534;49.960;8.018;2023-04-01T08:37:17;1.37;;;0.50;;
6987;SDS011;3534;49.960;8.018;2023-04-01T08:39:48;1.40;;;0.60;;
6987;SDS011;3534;49.960;8.018;2023-04-01T08:42:40;2.20;;;1.17;;
6987;SDS011;3534;49.960;8.018;2023-04-01T08:45:22;6.47;;;1.47;;
6987;SDS011;3534;49.960;8.018;2023-04-01T08:48:10;3.07;;;0.97;;
6987;SDS011;3534;49.960;8.018;2023-04-01T08:54:08;1.10;;;0.57;;
6987;SDS011;3534;49.960;8.018;2023-04-01T08:56:56;3.27;;;1.00;;
6987;SDS011;3534;49.960;8.018;2023-04-01T08:59:32;0.70;;;0.60;;
6987;SDS011;3534;49.960;8.018;2023-04-01T09:02:35;0.60;;;0.57;;
6987;SDS011;3534;49.960;8.018;2023-04-01T09:05:37;1.90;;;0.70;;
6987;SDS011;3534;49.960;8.018;2023-04-01T09:08:17;1.20;;;0.60;;
6987;SDS011;3534;49.960;8.018;2023-04-01T09:11:08;0.97;;;0.60;;
6987;SDS011;3534;49.960;8.018;2023-04-01T09:19:54;0.70;;;0.60;;
6987;SDS011;3534;49.960;8.018;2023-04-01T09:22:39;1.33;;;0.50;;
6987;SDS011;3534;49.960;8.018;2023-04-01T09:25:22;1.30;;;0.60;;
6987;SDS011;3534;49.960;8.018;2023-04-01T09:27:57;0.93;;;0.43;;
6987;SDS011;3534;49.960;8.018;2023-04-01T09:36:46;0.60;;;0.50;;
6987;SDS011;3534;49.960;8.018;2023-04-01T09:39:36;1.93;;;0.43;;
6987;SDS011;3534;49.960;8.018;2023-04-01T09:42:16;0.60;;;0.50;;
6987;SDS011;3534;49.960;8.018;2023-04-01T09:45:03;0.50;;;0.40;;
6987;SDS011;3534;49.960;8.018;2023-04-01T09:47:38;1.00;;;0.50;;
6987;SDS011;3534;49.960;8.018;2023-04-01T09:50:16;1.90;;;0.40;;
6987;SDS011;3534;49.960;8.018;2023-04-01T09:52:54;0.70;;;0.50;;
6987;SDS011;3534;49.960;8.018;2023-04-01T09:55:41;1.33;;;0.60;;
6987;SDS011;3534;49.960;8.018;2023-04-01T10:01:21;1.73;;;0.73;;
6987;SDS011;3534;49.960;8.018;2023-04-01T10:04:23;0.60;;;0.50;;
6987;SDS011;3534;49.960;8.018;2023-04-01T10:07:26;4.50;;;0.40;;
6987;SDS011;3534;49.960;8.018;2023-04-01T10:10:23;0.83;;;0.50;;
6987;SDS011;3534;49.960;8.018;2023-04-01T10:16:27;0.60;;;0.40;;
6987;SDS011;3534;49.960;8.018;2023-04-01T10:19:16;0.73;;;0.60;;
6987;SDS011;3534;49.960;8.018;2023-04-01T10:22:15;1.00;;;0.80;;
6987;SDS011;3534;49.960;8.018;2023-04-01T10:28:02;1.90;;;1.07;;
6987;SDS011;3534;49.960;8.018;2023-04-01T10:33:57;0.70;;;0.50;;
6987;SDS011;3534;49.960;8.018;2023-04-01T10:36:55;1.10;;;0.90;;
6987;SDS011;3534;49.960;8.018;2023-04-01T10:42:46;0.87;;;0.83;;
6987;SDS011;3534;49.960;8.018;2023-04-01T10:49:02;0.90;;;0.70;;
6987;SDS011;3534;49.960;8.018;2023-04-01T10:52:11;0.70;;;0.57;;
6987;SDS011;3534;49.960;8.018;2023-04-01T10:55:14;0.70;;;0.50;;
6987;SDS011;3534;49.960;8.018;2023-04-01T10:58:09;0.70;;;0.60;;
6987;SDS011;3534;49.960;8.018;2023-04-01T11:01:07;0.60;;;0.50;;
6987;SDS011;3534;49.960;8.018;2023-04-01T11:04:28;0.70;;;0.57;;
6987;SDS011;3534;49.960;8.018;2023-04-01T11:13:33;0.50;;;0.30;;
6987;SDS011;3534;49.960;8.018;2023-04-01T11:16:23;0.80;;;0.50;;
6987;SDS011;3534;49.960;8.018;2023-04-01T11:19:34;0.90;;;0.57;;
6987;SDS011;3534;49.960;8.018;2023-04-01T11:25:17;0.80;;;0.70;;
6987;SDS011;3534;49.960;8.018;2023-04-01T11:28:20;1.23;;;0.60;;
6987;SDS011;3534;49.960;8.018;2023-04-01T11:31:20;1.23;;;0.70;;
6987;SDS011;3534;49.960;8.018;2023-04-01T11:34:09;1.13;;;0.73;;
6987;SDS011;3534;49.960;8.018;2023-04-01T11:36:58;0.90;;;0.80;;
6987;SDS011;3534;49.960;8.018;2023-04-01T11:39:32;0.80;;;0.60;;
6987;SDS011;3534;49.960;8.018;2023-04-01T11:42:10;1.00;;;0.90;;
6987;SDS011;3534;49.960;8.018;2023-04-01T11:44:46;5.27;;;1.37;;
6987;SDS011;3534;49.960;8.018;2023-04-01T11:47:27;2.30;;;0.53;;
6987;SDS011;3534;49.960;8.018;2023-04-01T11:50:15;1.10;;;0.70;;
6987;SDS011;3534;49.960;8.018;2023-04-01T11:52:59;0.70;;;0.50;;
6987;SDS011;3534;49.960;8.018;2023-04-01T11:55:39;0.70;;;0.60;;
6987;SDS011;3534;49.960;8.018;2023-04-01T11:58:23;1.17;;;0.60;;
6987;SDS011;3534;49.960;8.018;2023-04-01T12:01:21;2.20;;;0.67;;
6987;SDS011;3534;49.960;8.018;2023-04-01T12:04:00;1.43;;;0.77;;
6987;SDS011;3534;49.960;8.018;2023-04-01T12:06:48;1.10;;;0.57;;
6987;SDS011;3534;49.960;8.018;2023-04-01T12:09:25;2.03;;;0.70;;
6987;SDS011;3534;49.960;8.018;2023-04-01T12:12:06;0.80;;;0.60;;
6987;SDS011;3534;49.960;8.018;2023-04-01T12:14:41;1.90;;;0.60;;
6987;SDS011;3534;49.960;8.018;2023-04-01T12:17:15;0.77;;;0.60;;
6987;SDS011;3534;49.960;8.018;2023-04-01T12:19:53;1.43;;;0.80;;
6987;SDS011;3534;49.960;8.018;2023-04-01T12:22:28;0.60;;;0.40;;
6987;SDS011;3534;49.960;8.018;2023-04-01T12:25:14;0.60;;;0.50;;
6987;SDS011;3534;49.960;8.018;2023-04-01T12:27:53;1.67;;;0.57;;
6987;SDS011;3534;49.960;8.018;2023-04-01T12:30:49;0.70;;;0.50;;
6987;SDS011;3534;49.960;8.018;2023-04-01T12:33:45;0.70;;;0.50;;
6987;SDS011;3534;49.960;8.018;2023-04-01T12:36:31;0.60;;;0.40;;
6987;SDS011;3534;49.960;8.018;2023-04-01T12:39:19;0.70;;;0.50;;
6987;SDS011;3534;49.960;8.018;2023-04-01T12:42:02;0.60;;;0.40;;
6987;SDS011;3534;49.960;8.018;2023-04-01T12:44:51;0.70;;;0.50;;
6987;SDS011;3534;49.960;8.018;2023-04-01T12:47:42;0.73;;;0.50;;
6987;SDS011;3534;49.960;8.018;2023-04-01T12:50:31;0.70;;;0.50;;
6987;SDS011;3534;49.960;8.018;2023-04-01T12:53:09;0.60;;;0.60;;
6987;SDS011;3534;49.960;8.018;2023-04-01T12:55:45;0.60;;;0.50;;
6987;SDS011;3534;49.960;8.018;2023-04-01T12:58:21;1.33;;;0.50;;
6987;SDS011;3534;49.960;8.018;2023-04-01T13:01:10;0.70;;;0.50;;
6987;SDS011;3534;49.960;8.018;2023-04-01T13:03:53;0.60;;;0.40;;
6987;SDS011;3534;49.960;8.018;2023-04-01T13:06:47;0.67;;;0.40;;
6987;SDS011;3534;49.960;8.018;2023-04-01T13:09:27;0.73;;;0.50;;
6987;SDS011;3534;49.960;8.018;2023-04-01T13:12:19;0.77;;;0.40;;
6987;SDS011;3534;49.960;8.018;2023-04-01T13:15:11;1.90;;;0.50;;
6987;SDS011;3534;49.960;8.018;2023-04-01T13:17:46;0.60;;;0.40;;
6987;SDS011;3534;49.960;8.018;2023-04-01T13:20:22;0.60;;;0.40;;
6987;SDS011;3534;49.960;8.018;2023-04-01T13:22:58;1.83;;;0.50;;
6987;SDS011;3534;49.960;8.018;2023-04-01T13:25:36;0.70;;;0.60;;
6987;SDS011;3534;49.960;8.018;2023-04-01T13:28:09;0.80;;;0.50;;
6987;SDS011;3534;49.960;8.018;2023-04-01T13:30:44;0.80;;;0.40;;
6987;SDS011;3534;49.960;8.018;2023-04-01T13:33:20;0.70;;;0.53;;
6987;SDS011;3534;49.960;8.018;2023-04-01T13:35:56;1.37;;;1.10;;
6987;SDS011;3534;49.960;8.018;2023-04-01T13:38:43;1.63;;;1.53;;
6987;SDS011;3534;49.960;8.018;2023-04-01T13:41:25;0.70;;;0.60;;
6987;SDS011;3534;49.960;8.018;2023-04-01T13:44:07;0.60;;;0.50;;
6987;SDS011;3534;49.960;8.018;2023-04-01T13:46:43;0.93;;;0.60;;
6987;SDS011;3534;49.960;8.018;2023-04-01T13:49:36;0.60;;;0.40;;
6987;SDS011;3534;49.960;8.018;2023-04-01T13:55:15;1.07;;;0.60;;
6987;SDS011;3534;49.960;8.018;2023-04-01T13:58:01;0.60;;;0.40;;
6987;SDS011;3534;49.960;8.018;2023-04-01T14:00:42;0.80;;;0.50;;
6987;SDS011;3534;49.960;8.018;2023-04-01T14:03:28;0.67;;;0.50;;
6987;SDS011;3534;49.960;8.018;2023-04-01T14:06:04;1.23;;;0.50;;
6987;SDS011;3534;49.960;8.018;2023-04-01T14:08:42;5.03;;;0.40;;
6987;SDS011;3534;49.960;8.018;2023-04-01T14:11:31;0.80;;;0.50;;
6987;SDS011;3534;49.960;8.018;2023-04-01T14:14:08;0.60;;;0.50;;
6987;SDS011;3534;49.960;8.018;2023-04-01T14:16:51;2.50;;;0.60;;
6987;SDS011;3534;49.960;8.018;2023-04-01T14:19:34;0.70;;;0.70;;
6987;SDS011;3534;49.960;8.018;2023-04-01T14:22:35;0.60;;;0.40;;
6987;SDS011;3534;49.960;8.018;2023-04-01T14:28:01;2.13;;;0.63;;
6987;SDS011;3534;49.960;8.018;2023-04-01T14:30:43;2.03;;;0.90;;
6987;SDS011;3534;49.960;8.018;2023-04-01T14:33:28;0.60;;;0.40;;
6987;SDS011;3534;49.960;8.018;2023-04-01T14:36:20;0.60;;;0.50;;
6987;SDS011;3534;49.960;8.018;2023-04-01T14:39:12;0.60;;;0.60;;
6987;SDS011;3534;49.960;8.018;2023-04-01T14:41:51;0.50;;;0.40;;
6987;SDS011;3534;49.960;8.018;2023-04-01T14:44:44;1.83;;;0.40;;
6987;SDS011;3534;49.960;8.018;2023-04-01T14:47:25;0.60;;;0.50;;
6987;SDS011;3534;49.960;8.018;2023-04-01T14:50:06;1.10;;;0.47;;
6987;SDS011;3534;49.960;8.018;2023-04-01T14:52:38;0.70;;;0.50;;
6987;SDS011;3534;49.960;8.018;2023-04-01T14:55:19;0.80;;;0.50;;
6987;SDS011;3534;49.960;8.018;2023-04-01T14:57:58;0.60;;;0.50;;
6987;SDS011;3534;49.960;8.018;2023-04-01T15:00:31;3.00;;;1.37;;
6987;SDS011;3534;49.960;8.018;2023-04-01T15:03:13;0.60;;;0.43;;
6987;SDS011;3534;49.960;8.018;2023-04-01T15:05:45;1.67;;;0.60;;
6987;SDS011;3534;49.960;8.018;2023-04-01T15:08:18;0.60;;;0.43;;
6987;SDS011;3534;49.960;8.018;2023-04-01T15:10:52;1.10;;;0.43;;
6987;SDS011;3534;49.960;8.018;2023-04-01T15:13:36;0.60;;;0.40;;
6987;SDS011;3534;49.960;8.018;2023-04-01T15:16:21;2.07;;;0.50;;
6987;SDS011;3534;49.960;8.018;2023-04-01T15:18:56;0.70;;;0.50;;
6987;SDS011;3534;49.960;8.018;2023-04-01T15:21:43;0.80;;;0.60;;
6987;SDS011;3534;49.960;8.018;2023-04-01T15:24:20;0.60;;;0.40;;
6987;SDS011;3534;49.960;8.018;2023-04-01T15:27:02;3.27;;;0.50;;
6987;SDS011;3534;49.960;8.018;2023-04-01T15:29:41;1.83;;;0.80;;
6987;SDS011;3534;49.960;8.018;2023-04-01T15:32:17;0.80;;;0.53;;
6987;SDS011;3534;49.960;8.018;2023-04-01T15:34:53;0.80;;;0.50;;
6987;SDS011;3534;49.960;8.018;2023-04-01T15:37:29;0.80;;;0.50;;
6987;SDS011;3534;49.960;8.018;2023-04-01T15:40:11;0.70;;;0.60;;
6987;SDS011;3534;49.960;8.018;2023-04-01T15:42:47;1.43;;;0.57;;
6987;SDS011;3534;49.960;8.018;2023-04-01T15:45:30;2.50;;;0.50;;
6987;SDS011;3534;49.960;8.018;2023-04-01T15:48:06;0.70;;;0.50;;
6987;SDS011;3534;49.960;8.018;2023-04-01T15:50:51;0.80;;;0.40;;
6987;SDS011;3534;49.960;8.018;2023-04-01T15:56:26;1.47;;;1.10;;
6987;SDS011;3534;49.960;8.018;2023-04-01T15:59:06;0.90;;;0.50;;
6987;SDS011;3534;49.960;8.018;2023-04-01T16:01:46;6.03;;;0.80;;
6987;SDS011;3534;49.960;8.018;2023-04-01T16:04:28;1.63;;;1.10;;
6987;SDS011;3534;49.960;8.018;2023-04-01T16:07:10;3.80;;;1.33;;
6987;SDS011;3534;49.960;8.018;2023-04-01T16:09:44;2.40;;;1.33;;
6987;SDS011;3534;49.960;8.018;2023-04-01T16:12:35;4.30;;;1.70;;
6987;SDS011;3534;49.960;8.018;2023-04-01T16:15:16;1.30;;;0.80;;
6987;SDS011;3534;49.960;8.018;2023-04-01T16:20:43;0.50;;;0.40;;
6987;SDS011;3534;49.960;8.018;2023-04-01T16:23:17;0.60;;;0.40;;
6987;SDS011;3534;49.960;8.018;2023-04-01T16:25:49;1.53;;;0.50;;
6987;SDS011;3534;49.960;8.018;2023-04-01T16:28:21;1.93;;;0.60;;
6987;SDS011;3534;49.960;8.018;2023-04-01T16:30:55;3.33;;;0.40;;
6987;SDS011;3534;49.960;8.018;2023-04-01T16:33:25;0.63;;;0.47;;
6987;SDS011;3534;49.960;8.018;2023-04-01T16:36:01;0.60;;;0.40;;
6987;SDS011;3534;49.960;8.018;2023-04-01T16:38:36;0.90;;;0.77;;
6987;SDS011;3534;49.960;8.018;2023-04-01T16:41:10;0.60;;;0.50;;
6987;SDS011;3534;49.960;8.018;2023-04-01T16:43:42;0.70;;;0.50;;
6987;SDS011;3534;49.960;8.018;2023-04-01T16:46:15;2.00;;;1.00;;
6987;SDS011;3534;49.960;8.018;2023-04-01T16:48:57;2.40;;;1.10;;
6987;SDS011;3534;49.960;8.018;2023-04-01T16:51:26;1.17;;;0.70;;
6987;SDS011;3534;49.960;8.018;2023-04-01T16:54:04;7.90;;;1.63;;
6987;SDS011;3534;49.960;8.018;2023-04-01T16:56:38;4.33;;;1.83;;
6987;SDS011;3534;49.960;8.018;2023-04-01T16:59:14;3.10;;;1.40;;
6987;SDS011;3534;49.960;8.018;2023-04-01T17:01:48;3.90;;;1.13;;
6987;SDS011;3534;49.960;8.018;2023-04-01T17:04:19;0.80;;;0.70;;
6987;SDS011;3534;49.960;8.018;2023-04-01T17:06:58;1.10;;;0.70;;
6987;SDS011;3534;49.960;8.018;2023-04-01T17:09:36;0.80;;;0.70;;
6987;SDS011;3534;49.960;8.018;2023-04-01T17:12:13;0.80;;;0.80;;
6987;SDS011;3534;49.960;8.018;2023-04-01T17:14:49;1.03;;;0.80;;